Time;durP1;ratioP1;P1;durP2;ratioP2;P2;SDS_P1;SDS_P2;PMS_P1;PMS_P2;Temp;Humidity;BMP_temperature;BMP_pressure;BME280_temperature;BME280_humidity;BME280_pressure;Samples;Min_cycle;Max_cycle;Signal;HPM_P1;HPM_P2
2022/02/15 05:23:23;;;;;;;9.77;3.15;;;3.90;91.80;;;;;;5072348;28;20405;-79
2022/02/15 05:25:49;;;;;;;11.75;4.95;;;3.90;91.50;;;;;;5052336;28;20025;-80
2022/02/15 05:28:15;;;;;;;12.27;4.00;;;4.20;91.10;;;;;;5052380;28;20535;-83
2022/02/15 05:30:40;;;;;;;11.68;4.32;;;4.50;90.30;;;;;;5052157;28;20033;-83
2022/02/15 05:33:06;;;;;;;10.73;5.10;;;4.80;89.60;;;;;;5052451;28;20064;-78
2022/02/15 05:35:32;;;;;;;8.50;3.47;;;5.00;89.10;;;;;;5052409;28;20488;-79
2022/02/15 05:37:57;;;;;;;6.65;2.90;;;5.20;88.30;;;;;;5052131;28;20029;-79
2022/02/15 05:40:23;;;;;;;6.53;2.75;;;5.30;87.60;;;;;;5050867;28;20018;-79
2022/02/15 05:42:49;;;;;;;5.07;2.58;;;5.30;87.10;;;;;;5052229;28;20470;-79
2022/02/15 05:45:15;;;;;;;5.55;2.30;;;5.30;86.50;;;;;;5051760;28;20021;-79
2022/02/15 05:47:42;;;;;;;9.95;2.90;;;5.40;86.40;;;;;;5052015;28;20079;-80
2022/02/15 05:52:52;;;;;;;6.85;2.50;;;5.50;86.40;;;;;;5053425;28;20103;-83
2022/02/15 05:55:18;;;;;;;7.82;2.30;;;5.50;86.20;;;;;;5060103;28;20042;-78
2022/02/15 05:57:44;;;;;;;6.03;2.22;;;5.50;86.00;;;;;;5069329;28;20051;-80
2022/02/15 06:00:11;;;;;;;3.95;2.05;;;5.50;86.10;;;;;;5058760;28;20029;-80
2022/02/15 06:02:37;;;;;;;9.65;2.70;;;5.50;86.30;;;;;;5068695;28;20116;-80
2022/02/15 06:05:03;;;;;;;6.40;2.55;;;5.50;86.40;;;;;;5068832;28;20059;-80
2022/02/15 06:07:28;;;;;;;11.40;3.40;;;5.60;86.40;;;;;;5064861;28;20058;-79
2022/02/15 06:09:54;;;;;;;6.45;2.85;;;5.70;86.60;;;;;;5061100;28;20519;-80
2022/02/15 06:12:20;;;;;;;9.63;3.45;;;5.70;86.30;;;;;;5062792;28;20033;-78
2022/02/15 06:14:47;;;;;;;6.78;2.72;;;5.80;86.30;;;;;;5059594;28;20033;-79
2022/02/15 06:17:12;;;;;;;8.10;3.25;;;5.70;85.90;;;;;;5060025;28;20128;-81
2022/02/15 06:19:38;;;;;;;6.10;2.15;;;5.70;85.90;;;;;;5060483;28;20108;-77
2022/02/15 06:22:04;;;;;;;7.15;3.00;;;5.60;85.70;;;;;;5064019;28;20122;-78
2022/02/15 06:24:30;;;;;;;7.97;2.13;;;5.60;86.20;;;;;;5053382;28;20381;-77
2022/02/15 06:27:01;;;;;;;8.13;3.05;;;5.50;86.10;;;;;;5050389;28;20033;-77
2022/02/15 06:29:30;;;;;;;10.98;3.35;;;5.50;86.40;;;;;;5063668;28;20033;-77
2022/02/15 06:31:56;;;;;;;8.73;3.30;;;5.50;86.30;;;;;;5063644;28;20029;-77
2022/02/15 06:34:22;;;;;;;11.45;3.28;;;5.50;86.50;;;;;;5040035;28;20033;-77
2022/02/15 06:36:48;;;;;;;7.22;2.92;;;5.50;86.20;;;;;;5041509;28;20033;-77
2022/02/15 06:39:14;;;;;;;5.65;2.80;;;5.50;86.20;;;;;;5057566;28;20036;-77
2022/02/15 06:41:39;;;;;;;12.65;3.45;;;5.50;86.40;;;;;;5052536;28;20033;-77
2022/02/15 06:44:05;;;;;;;7.65;3.13;;;5.50;86.20;;;;;;5037652;28;20076;-77
2022/02/15 06:46:34;;;;;;;7.32;3.20;;;5.50;86.30;;;;;;5037635;28;20029;-77
2022/02/15 06:49:00;;;;;;;5.43;3.03;;;5.50;86.20;;;;;;5042350;28;20028;-77
2022/02/15 06:51:26;;;;;;;7.95;3.53;;;5.60;86.30;;;;;;5046367;28;20033;-77
2022/02/15 06:53:52;;;;;;;11.13;3.17;;;5.60;86.30;;;;;;5037164;28;20477;-79
2022/02/15 06:56:17;;;;;;;11.00;3.30;;;5.70;86.60;;;;;;5037549;28;20221;-77
2022/02/15 06:58:43;;;;;;;9.65;3.00;;;5.70;86.50;;;;;;5037501;28;20033;-77
2022/02/15 07:01:09;;;;;;;9.63;3.08;;;5.70;86.90;;;;;;5037349;28;20033;-77
2022/02/15 07:03:35;;;;;;;14.75;3.08;;;5.80;86.90;;;;;;5043172;28;20444;-77
2022/02/15 07:06:01;;;;;;;11.20;3.20;;;5.90;86.70;;;;;;5077251;28;20372;-77
2022/02/15 07:08:27;;;;;;;14.95;4.03;;;6.00;86.30;;;;;;5074431;28;20073;-77
2022/02/15 07:10:54;;;;;;;9.98;3.40;;;5.90;86.20;;;;;;5039283;28;20108;-77
2022/02/15 07:13:22;;;;;;;8.40;4.15;;;5.90;86.20;;;;;;5049461;28;20030;-77
2022/02/15 07:15:48;;;;;;;12.73;2.92;;;5.80;86.40;;;;;;5036044;28;20028;-77
2022/02/15 07:18:13;;;;;;;11.00;2.70;;;6.00;86.40;;;;;;5037225;28;20033;-77
2022/02/15 07:20:39;;;;;;;7.40;2.35;;;6.00;86.40;;;;;;5035943;28;20083;-77
2022/02/15 07:23:07;;;;;;;5.30;2.22;;;6.10;86.30;;;;;;5036592;28;20053;-77
2022/02/15 07:25:33;;;;;;;6.70;3.17;;;6.10;86.00;;;;;;5037143;28;20018;-77
2022/02/15 07:28:01;;;;;;;7.85;2.80;;;6.10;86.40;;;;;;5036505;28;20750;-77
2022/02/15 07:30:27;;;;;;;8.18;2.60;;;6.20;86.20;;;;;;5036913;28;20073;-77
2022/02/15 07:32:53;;;;;;;9.55;2.72;;;6.20;86.20;;;;;;5041077;28;20063;-77
2022/02/15 07:35:19;;;;;;;12.82;2.90;;;6.20;85.90;;;;;;5055400;28;20029;-78
2022/02/15 07:37:49;;;;;;;10.23;2.55;;;6.20;86.20;;;;;;5056694;28;20021;-77
2022/02/15 07:40:19;;;;;;;15.70;2.92;;;6.20;86.00;;;;;;5056661;28;20021;-77
2022/02/15 07:42:45;;;;;;;14.63;3.42;;;6.20;86.40;;;;;;5043034;28;20049;-77
2022/02/15 07:45:17;;;;;;;9.25;3.03;;;6.30;86.40;;;;;;5035557;28;20407;-77
2022/02/15 07:47:44;;;;;;;14.57;2.97;;;6.30;86.40;;;;;;5051753;28;20116;-78
2022/02/15 07:50:09;;;;;;;9.60;3.22;;;6.50;86.20;;;;;;5050444;28;20021;-78
2022/02/15 07:52:35;;;;;;;10.45;2.65;;;6.60;86.50;;;;;;5055052;28;20052;-78
2022/02/15 07:55:01;;;;;;;11.20;2.70;;;6.70;86.20;;;;;;5039830;28;20084;-77
2022/02/15 07:57:26;;;;;;;9.57;2.72;;;6.80;86.00;;;;;;5036389;28;20064;-77
2022/02/15 07:59:52;;;;;;;10.68;3.42;;;6.90;85.70;;;;;;5035958;28;20029;-78
2022/02/15 08:02:19;;;;;;;14.32;3.15;;;7.10;85.50;;;;;;5046625;28;20090;-78
2022/02/15 08:04:45;;;;;;;16.25;2.60;;;7.30;85.60;;;;;;5059195;28;20029;-78
2022/02/15 08:07:10;;;;;;;6.85;2.45;;;7.40;85.50;;;;;;5051889;28;20107;-77
2022/02/15 08:09:36;;;;;;;6.35;2.15;;;7.50;85.30;;;;;;5054859;28;20032;-77
2022/02/15 08:12:08;;;;;;;10.43;2.38;;;7.60;85.00;;;;;;5052149;28;20037;-76
2022/02/15 08:14:37;;;;;;;7.75;2.60;;;7.70;85.00;;;;;;5053838;28;20025;-76
2022/02/15 08:17:03;;;;;;;10.48;2.10;;;7.70;85.40;;;;;;5046928;28;20060;-77
2022/02/15 08:19:29;;;;;;;6.55;2.17;;;7.70;85.10;;;;;;5039909;28;20063;-79
2022/02/15 08:21:58;;;;;;;12.05;2.75;;;7.80;85.50;;;;;;5047321;28;20048;-76
2022/02/15 08:24:25;;;;;;;8.05;2.38;;;7.80;85.40;;;;;;5041901;28;20031;-77
2022/02/15 08:26:51;;;;;;;7.97;2.40;;;7.90;85.50;;;;;;5045740;28;20025;-77
2022/02/15 08:29:17;;;;;;;12.30;1.95;;;7.90;85.50;;;;;;5046823;28;20021;-77
2022/02/15 08:31:43;;;;;;;9.57;2.17;;;8.00;85.70;;;;;;5045615;28;20120;-77
2022/02/15 08:34:09;;;;;;;6.18;1.73;;;8.10;85.50;;;;;;5047059;28;20433;-77
2022/02/15 08:36:34;;;;;;;12.15;2.08;;;8.20;85.20;;;;;;5080673;28;20078;-77
2022/02/15 08:39:00;;;;;;;9.25;1.90;;;8.20;84.80;;;;;;5045016;28;20032;-76
2022/02/15 08:41:26;;;;;;;6.47;2.05;;;8.30;85.50;;;;;;5044777;28;20128;-76
2022/02/15 08:43:52;;;;;;;9.90;2.30;;;8.30;85.00;;;;;;5044753;28;20411;-76
2022/02/15 08:46:17;;;;;;;8.05;1.75;;;8.40;85.30;;;;;;5052846;28;20049;-76
2022/02/15 08:48:43;;;;;;;8.27;1.90;;;8.50;85.20;;;;;;5044564;28;20558;-77
2022/02/15 08:51:09;;;;;;;13.02;2.50;;;8.60;85.20;;;;;;5044028;28;20052;-76
2022/02/15 08:53:34;;;;;;;6.78;2.03;;;8.60;85.50;;;;;;5051669;28;20029;-75
2022/02/15 08:56:00;;;;;;;8.95;2.22;;;8.70;85.30;;;;;;5046277;28;20040;-76
2022/02/15 08:58:26;;;;;;;9.13;2.05;;;8.90;84.90;;;;;;5048241;28;20029;-77
2022/02/15 09:00:52;;;;;;;6.70;2.20;;;9.10;84.90;;;;;;5047500;28;20028;-76
2022/02/15 09:03:18;;;;;;;6.10;2.17;;;9.20;84.50;;;;;;5041864;28;20029;-77
2022/02/15 09:05:44;;;;;;;5.88;1.70;;;9.30;84.40;;;;;;5054404;28;20491;-76
2022/02/15 09:08:10;;;;;;;9.05;2.42;;;9.40;84.20;;;;;;5041078;28;20427;-77
2022/02/15 09:10:38;;;;;;;8.68;2.08;;;9.40;84.10;;;;;;5054413;28;20031;-77
2022/02/15 09:13:04;;;;;;;9.65;2.10;;;9.30;84.10;;;;;;5064632;28;20029;-77
2022/02/15 09:15:30;;;;;;;12.68;2.40;;;9.20;84.70;;;;;;5073325;28;20524;-77
2022/02/15 09:17:56;;;;;;;7.80;2.03;;;9.20;84.80;;;;;;5055839;28;20275;-78
2022/02/15 09:23:03;;;;;;;7.68;2.40;;;9.00;85.60;;;;;;5065437;28;20379;-78
2022/02/15 09:25:29;;;;;;;12.30;2.33;;;8.90;86.00;;;;;;5083039;28;20025;-77
2022/02/15 09:27:54;;;;;;;5.90;2.53;;;9.00;86.20;;;;;;5080067;28;20061;-75
2022/02/15 09:30:20;;;;;;;8.32;2.38;;;9.20;86.10;;;;;;5090014;28;20652;-75
2022/02/15 09:32:46;;;;;;;11.05;2.42;;;9.20;85.90;;;;;;5090704;28;20024;-78
2022/02/15 09:35:11;;;;;;;8.48;2.05;;;9.30;85.70;;;;;;5087383;28;20025;-77
2022/02/15 09:37:37;;;;;;;9.88;2.13;;;9.20;85.70;;;;;;5071538;28;20050;-77
2022/02/15 09:40:05;;;;;;;7.82;2.67;;;9.20;85.90;;;;;;5070354;28;20024;-76
2022/02/15 09:42:31;;;;;;;11.35;3.10;;;9.20;85.80;;;;;;5071107;28;20040;-77
2022/02/15 09:44:57;;;;;;;10.57;2.03;;;9.40;85.90;;;;;;5069316;28;20025;-77
2022/02/15 09:47:25;;;;;;;8.13;2.28;;;9.50;85.70;;;;;;5070008;28;20036;-77
2022/02/15 09:49:52;;;;;;;7.53;2.30;;;9.60;85.70;;;;;;5066601;28;20017;-75
2022/02/15 09:52:20;;;;;;;8.25;2.60;;;9.70;85.50;;;;;;5069553;28;20573;-74
2022/02/15 09:54:46;;;;;;;10.63;2.28;;;9.70;85.20;;;;;;5059330;28;20029;-74
2022/02/15 09:57:15;;;;;;;6.88;2.60;;;9.80;85.50;;;;;;5060334;28;20029;-77
2022/02/15 09:59:41;;;;;;;6.85;2.45;;;9.80;85.50;;;;;;5059999;28;20348;-74
2022/02/15 10:02:12;;;;;;;10.23;2.40;;;9.80;85.40;;;;;;5066414;28;21562;-75
2022/02/15 10:04:38;;;;;;;11.05;2.67;;;10.00;85.20;;;;;;5065403;28;20014;-75
2022/02/15 10:07:09;;;;;;;9.23;2.13;;;10.10;85.10;;;;;;5056780;28;20447;-76
2022/02/15 10:09:36;;;;;;;8.60;2.15;;;10.20;85.00;;;;;;5066335;28;20029;-76
2022/02/15 10:12:07;;;;;;;10.30;2.03;;;10.30;84.40;;;;;;5060069;28;20740;-75
2022/02/15 10:14:41;;;;;;;9.38;2.30;;;10.40;84.30;;;;;;5060667;28;20025;-75
2022/02/15 10:17:13;;;;;;;8.85;1.70;;;10.50;84.30;;;;;;5060434;28;20048;-75
2022/02/15 10:19:40;;;;;;;8.45;2.40;;;10.50;83.80;;;;;;5057261;28;20395;-75
2022/02/15 10:22:07;;;;;;;7.20;2.25;;;10.70;84.10;;;;;;5060371;28;20464;-76
2022/02/15 10:24:35;;;;;;;7.90;2.13;;;10.80;83.80;;;;;;5056093;28;20021;-75
2022/02/15 10:27:04;;;;;;;6.93;2.03;;;10.90;83.10;;;;;;5057201;28;20164;-76
2022/02/15 10:29:33;;;;;;;8.30;2.22;;;11.10;83.10;;;;;;5064692;28;20024;-76
2022/02/15 10:32:01;;;;;;;12.48;2.53;;;11.30;82.60;;;;;;5069848;28;20036;-75
2022/02/15 10:34:27;;;;;;;7.80;2.28;;;11.20;82.40;;;;;;5050686;28;20072;-75
2022/02/15 10:37:06;;;;;;;8.60;2.33;;;11.30;82.00;;;;;;5053303;28;20075;-76
2022/02/15 10:39:42;;;;;;;9.05;2.45;;;11.30;81.80;;;;;;5056162;28;20039;-76
2022/02/15 10:42:13;;;;;;;10.82;2.05;;;11.30;82.30;;;;;;5051845;28;20033;-76
2022/02/15 10:44:52;;;;;;;4.90;1.92;;;11.40;82.10;;;;;;5052124;28;20028;-76
2022/02/15 10:47:18;;;;;;;5.80;2.08;;;11.50;82.00;;;;;;5054211;28;20096;-76
2022/02/15 10:49:45;;;;;;;8.23;1.80;;;11.60;81.70;;;;;;5056470;28;20029;-76
2022/02/15 10:52:11;;;;;;;3.47;1.73;;;11.70;81.80;;;;;;5056424;28;20083;-76
2022/02/15 10:54:40;;;;;;;5.45;1.70;;;11.80;81.80;;;;;;5045198;28;20030;-76
2022/02/15 10:57:12;;;;;;;8.50;1.73;;;11.90;81.30;;;;;;5036176;28;20025;-77
2022/02/15 10:59:41;;;;;;;7.90;1.88;;;12.00;81.10;;;;;;5032098;28;20524;-77
2022/02/15 11:02:10;;;;;;;9.77;1.60;;;12.20;81.30;;;;;;5049787;28;20585;-76
2022/02/15 11:04:37;;;;;;;3.67;1.77;;;12.30;80.40;;;;;;5045976;28;20031;-76
2022/02/15 11:07:06;;;;;;;5.70;1.60;;;12.20;80.90;;;;;;5050909;28;20426;-76
2022/02/15 11:09:48;;;;;;;7.47;1.88;;;12.30;80.60;;;;;;5052500;28;20038;-76
2022/02/15 11:12:25;;;;;;;6.18;1.65;;;12.30;80.20;;;;;;5053995;28;20060;-76
2022/02/15 11:15:05;;;;;;;6.65;1.67;;;12.30;80.00;;;;;;5049183;28;20048;-76
2022/02/15 11:17:32;;;;;;;10.35;2.00;;;12.30;80.30;;;;;;5055182;28;20037;-76
2022/02/15 11:20:07;;;;;;;4.15;1.40;;;12.20;80.50;;;;;;5051278;28;20073;-76
2022/02/15 11:22:45;;;;;;;6.90;2.50;;;12.10;80.40;;;;;;5039292;28;20061;-76
2022/02/15 11:25:11;;;;;;;8.55;1.98;;;12.10;80.70;;;;;;5053293;28;20059;-74
2022/02/15 11:27:37;;;;;;;7.80;2.08;;;12.00;80.40;;;;;;5052342;28;20025;-74
2022/02/15 11:30:04;;;;;;;6.50;2.13;;;11.90;80.90;;;;;;5055630;28;20040;-74
2022/02/15 11:32:43;;;;;;;9.10;1.75;;;11.80;81.30;;;;;;5051980;28;20025;-73
2022/02/15 11:35:14;;;;;;;14.05;1.90;;;11.80;81.20;;;;;;5049158;28;20104;-74
2022/02/15 11:37:40;;;;;;;6.13;1.85;;;11.70;81.40;;;;;;5036546;28;20029;-74
2022/02/15 11:40:12;;;;;;;7.05;1.50;;;11.70;81.80;;;;;;5039695;28;20616;-74
2022/02/15 11:42:51;;;;;;;9.02;2.70;;;11.60;81.80;;;;;;5045817;28;20034;-74
2022/02/15 11:45:23;;;;;;;5.10;1.50;;;11.50;82.20;;;;;;5035489;28;20025;-74
2022/02/15 11:47:49;;;;;;;9.90;1.70;;;11.60;82.00;;;;;;5035987;28;20030;-74
2022/02/15 11:50:16;;;;;;;11.30;2.05;;;11.60;81.90;;;;;;5045171;28;20087;-74
2022/02/15 11:52:44;;;;;;;8.60;1.98;;;11.60;81.70;;;;;;5055791;28;20418;-74
2022/02/15 11:55:14;;;;;;;5.00;1.50;;;11.60;81.70;;;;;;5051242;28;20032;-74
2022/02/15 11:57:41;;;;;;;9.05;1.60;;;11.70;81.80;;;;;;5036203;28;20040;-74
2022/02/15 12:00:08;;;;;;;7.82;1.70;;;11.80;81.80;;;;;;5056350;28;20062;-74
2022/02/15 12:02:34;;;;;;;7.68;1.70;;;11.80;81.40;;;;;;5037420;28;20052;-74
2022/02/15 12:05:04;;;;;;;7.85;2.00;;;11.80;81.30;;;;;;5065873;28;20111;-74
2022/02/15 12:07:30;;;;;;;12.00;1.77;;;11.80;81.30;;;;;;5076055;28;20052;-74
2022/02/15 12:10:05;;;;;;;7.65;1.80;;;11.70;81.50;;;;;;5072168;28;20048;-74
2022/02/15 12:12:39;;;;;;;7.18;1.40;;;11.60;82.00;;;;;;5055518;28;20032;-74
2022/02/15 12:15:08;;;;;;;11.45;2.45;;;11.50;82.80;;;;;;5054709;28;20025;-74
2022/02/15 12:17:42;;;;;;;7.32;1.55;;;11.40;83.40;;;;;;5039281;28;20046;-74
2022/02/15 12:20:16;;;;;;;9.30;2.45;;;11.30;83.60;;;;;;5036023;28;20495;-74
2022/02/15 12:22:43;;;;;;;9.68;2.22;;;11.40;84.10;;;;;;5035295;28;20051;-74
2022/02/15 12:25:10;;;;;;;9.18;2.08;;;11.40;84.10;;;;;;5035928;28;20430;-74
2022/02/15 12:27:41;;;;;;;11.55;2.13;;;11.60;84.10;;;;;;5035725;28;20029;-74
2022/02/15 12:30:11;;;;;;;6.05;1.80;;;11.80;83.90;;;;;;5035704;28;20405;-74
2022/02/15 12:32:39;;;;;;;;;;;12.10;83.30;;;;;;5034566;28;20041;-74
2022/02/15 12:35:06;;;;;;;6.18;1.52;;;12.30;82.50;;;;;;5038861;28;19912;-74
2022/02/15 12:37:32;;;;;;;6.05;1.55;;;12.60;81.80;;;;;;5038822;28;20534;-74
2022/02/15 12:40:00;;;;;;;9.18;1.98;;;12.80;81.20;;;;;;5045796;28;20399;-76
2022/02/15 12:42:28;;;;;;;7.78;1.77;;;13.00;80.20;;;;;;5046151;28;20040;-77
2022/02/15 12:45:08;;;;;;;12.32;2.38;;;13.00;79.70;;;;;;5051132;28;20064;-76
2022/02/15 12:47:40;;;;;;;6.35;1.50;;;13.10;78.10;;;;;;5050027;28;20043;-76
2022/02/15 12:50:07;;;;;;;9.10;1.65;;;13.10;78.50;;;;;;5051571;28;20046;-76
2022/02/15 12:52:34;;;;;;;5.25;1.42;;;13.00;77.60;;;;;;5050609;28;20112;-76
2022/02/15 12:55:09;;;;;;;5.05;1.85;;;13.00;77.80;;;;;;5051836;28;20412;-76
2022/02/15 12:57:37;;;;;;;10.63;1.95;;;13.00;78.30;;;;;;5050317;28;20491;-76
2022/02/15 13:00:04;;;;;;;7.60;1.83;;;13.00;78.00;;;;;;5052953;28;20036;-77
2022/02/15 13:02:33;;;;;;;12.63;2.05;;;12.90;77.80;;;;;;5053186;28;20452;-76
2022/02/15 13:04:59;;;;;;;8.13;2.28;;;12.80;78.00;;;;;;5054285;28;20513;-77
2022/02/15 13:07:26;;;;;;;10.43;2.17;;;12.60;78.30;;;;;;5054429;28;20085;-76
2022/02/15 13:09:57;;;;;;;6.05;1.25;;;12.50;78.00;;;;;;5050597;28;20033;-76
2022/02/15 13:12:25;;;;;;;9.50;1.98;;;12.50;77.80;;;;;;5054425;28;20104;-77
2022/02/15 13:14:55;;;;;;;8.50;1.80;;;12.40;78.10;;;;;;5054933;28;20017;-76
2022/02/15 13:17:23;;;;;;;5.93;1.30;;;12.50;78.30;;;;;;5054724;28;20025;-76
2022/02/15 13:19:48;;;;;;;4.63;1.88;;;12.60;77.70;;;;;;5049426;28;20025;-76
2022/02/15 13:22:22;;;;;;;4.40;1.50;;;12.50;77.40;;;;;;5052579;28;20037;-77
2022/02/15 13:24:52;;;;;;;8.18;2.05;;;12.60;77.20;;;;;;5050073;28;20021;-76
2022/02/15 13:27:31;;;;;;;7.20;1.80;;;12.60;77.10;;;;;;5053203;28;20421;-76
2022/02/15 13:29:58;;;;;;;8.25;1.70;;;12.50;76.70;;;;;;5053264;28;20120;-76
2022/02/15 13:32:35;;;;;;;5.90;1.60;;;12.50;76.80;;;;;;5053276;28;20407;-77
2022/02/15 13:35:02;;;;;;;7.40;1.67;;;12.50;77.10;;;;;;5051316;28;20507;-76
2022/02/15 13:37:34;;;;;;;7.60;1.75;;;12.50;77.10;;;;;;5051718;28;20112;-76
2022/02/15 13:40:01;;;;;;;8.23;1.38;;;12.50;77.20;;;;;;5053024;28;20051;-76
2022/02/15 13:42:27;;;;;;;6.22;1.73;;;12.50;77.50;;;;;;5053061;28;20056;-76
2022/02/15 13:44:54;;;;;;;6.13;2.20;;;12.40;77.40;;;;;;5054264;28;20078;-77
2022/02/15 13:47:21;;;;;;;7.35;1.75;;;12.40;77.60;;;;;;5051959;28;20083;-77
2022/02/15 13:49:46;;;;;;;12.80;1.90;;;12.30;78.00;;;;;;5054026;28;20028;-76
2022/02/15 13:52:12;;;;;;;6.45;2.38;;;12.50;78.00;;;;;;5054227;28;20124;-77
2022/02/15 13:54:38;;;;;;;10.20;2.50;;;12.50;78.00;;;;;;5054348;28;20021;-77
2022/02/15 13:57:04;;;;;;;8.40;1.52;;;12.40;78.00;;;;;;5047267;28;20045;-76
2022/02/15 13:59:29;;;;;;;6.03;1.40;;;12.50;78.00;;;;;;5053466;28;20025;-77
2022/02/15 14:01:55;;;;;;;5.13;1.52;;;12.50;78.40;;;;;;5054451;28;20398;-76
2022/02/15 14:04:26;;;;;;;5.03;1.80;;;12.40;78.30;;;;;;5049142;28;20021;-76
2022/02/15 14:06:53;;;;;;;5.93;1.60;;;12.50;78.30;;;;;;5034631;28;20025;-76
2022/02/15 14:09:19;;;;;;;11.48;2.20;;;12.50;78.50;;;;;;5045667;28;20606;-77
2022/02/15 14:11:44;;;;;;;13.13;1.70;;;12.20;79.10;;;;;;5058148;28;20059;-77
2022/02/15 14:14:10;;;;;;;5.88;1.95;;;12.20;79.30;;;;;;5041767;28;20036;-77
2022/02/15 14:16:36;;;;;;;7.25;1.48;;;12.30;79.90;;;;;;5051970;28;20030;-77
2022/02/15 14:19:02;;;;;;;10.00;2.00;;;12.30;79.70;;;;;;5038185;28;20025;-77
2022/02/15 14:21:27;;;;;;;5.72;1.40;;;12.20;79.70;;;;;;5036437;28;20049;-76
2022/02/15 14:23:53;;;;;;;8.63;1.80;;;12.20;80.30;;;;;;5050033;28;20052;-76
2022/02/15 14:26:19;;;;;;;8.15;1.92;;;12.20;80.20;;;;;;5057023;28;20028;-76
2022/02/15 14:28:45;;;;;;;11.35;1.55;;;12.20;80.40;;;;;;5054127;28;20053;-77
2022/02/15 14:31:11;;;;;;;10.85;1.65;;;12.20;80.30;;;;;;5057572;28;20028;-76
2022/02/15 14:33:43;;;;;;;11.00;1.40;;;12.20;80.80;;;;;;5057181;28;20025;-76
2022/02/15 14:36:10;;;;;;;5.68;1.75;;;12.10;80.50;;;;;;5055302;28;20103;-77
2022/02/15 14:38:36;;;;;;;6.05;1.73;;;12.00;80.90;;;;;;5054876;28;20028;-76
2022/02/15 14:41:01;;;;;;;4.60;1.60;;;12.00;80.50;;;;;;5057248;28;20399;-75
2022/02/15 14:43:27;;;;;;;3.65;1.40;;;12.10;80.90;;;;;;5057302;28;20029;-75
2022/02/15 14:45:53;;;;;;;5.32;1.42;;;12.00;80.50;;;;;;5055871;28;20399;-75
2022/02/15 14:48:22;;;;;;;5.57;1.52;;;12.00;80.50;;;;;;5055678;28;20078;-75
2022/02/15 14:50:48;;;;;;;10.48;2.35;;;12.10;80.60;;;;;;5054744;28;20017;-75
2022/02/15 14:53:14;;;;;;;8.57;1.90;;;12.10;80.50;;;;;;5053807;28;20028;-76
2022/02/15 14:55:40;;;;;;;8.95;1.60;;;12.10;80.70;;;;;;5057098;28;20499;-77
2022/02/15 14:58:06;;;;;;;5.65;1.67;;;12.10;81.00;;;;;;5057047;28;20122;-77
2022/02/15 15:00:33;;;;;;;7.88;2.00;;;12.00;80.90;;;;;;5055587;28;20446;-76
2022/02/15 15:03:00;;;;;;;3.28;1.45;;;11.90;81.10;;;;;;5054717;28;20064;-76
2022/02/15 15:05:25;;;;;;;8.40;1.80;;;11.90;81.70;;;;;;5056602;28;20031;-76
2022/02/15 15:07:51;;;;;;;8.55;1.65;;;11.90;82.00;;;;;;5056016;28;20120;-76
2022/02/15 15:10:17;;;;;;;4.40;1.83;;;11.80;81.90;;;;;;5055235;28;20036;-76
2022/02/15 15:12:43;;;;;;;6.60;2.05;;;11.80;82.00;;;;;;5054266;28;20503;-76
2022/02/15 15:15:10;;;;;;;7.38;1.70;;;11.80;82.10;;;;;;5056210;28;20139;-76
2022/02/15 15:17:38;;;;;;;10.18;2.20;;;11.80;82.20;;;;;;5056866;28;20033;-76
2022/02/15 15:20:05;;;;;;;14.50;1.95;;;11.80;82.10;;;;;;5056978;28;20799;-76
2022/02/15 15:22:30;;;;;;;9.75;1.58;;;11.80;82.00;;;;;;5052936;28;20045;-76
2022/02/15 15:24:56;;;;;;;6.68;1.70;;;11.70;82.20;;;;;;5055919;28;20564;-76
2022/02/15 15:27:22;;;;;;;5.70;1.92;;;11.70;82.60;;;;;;5056380;28;20073;-76
2022/02/15 15:29:48;;;;;;;8.82;1.95;;;11.70;82.80;;;;;;5053359;28;20397;-76
2022/02/15 15:32:14;;;;;;;7.65;1.98;;;11.70;82.60;;;;;;5055002;28;20028;-76
2022/02/15 15:34:44;;;;;;;5.63;2.00;;;11.70;82.60;;;;;;5051068;28;20388;-76
2022/02/15 15:37:10;;;;;;;12.80;1.55;;;11.70;82.60;;;;;;5045012;28;20049;-76
2022/02/15 15:39:36;;;;;;;7.57;2.60;;;11.60;82.70;;;;;;5049493;28;20038;-75
2022/02/15 15:42:06;;;;;;;7.55;2.15;;;11.70;82.70;;;;;;5054292;28;20409;-76
2022/02/15 15:44:32;;;;;;;5.22;1.95;;;11.70;82.60;;;;;;5056108;28;20403;-76
2022/02/15 15:46:58;;;;;;;13.18;2.10;;;11.70;82.70;;;;;;5050853;28;20111;-74
2022/02/15 15:49:24;;;;;;;6.30;1.55;;;11.60;82.80;;;;;;5055241;28;20071;-74
2022/02/15 15:51:49;;;;;;;11.05;2.08;;;11.60;83.10;;;;;;5055342;28;20032;-73
2022/02/15 15:54:15;;;;;;;5.88;1.35;;;11.60;83.40;;;;;;5054596;28;20029;-73
2022/02/15 15:56:41;;;;;;;7.07;1.73;;;11.50;83.40;;;;;;5055052;28;20837;-73
2022/02/15 15:59:07;;;;;;;7.75;1.67;;;11.60;83.60;;;;;;5050999;28;20025;-74
2022/02/15 16:01:32;;;;;;;6.00;1.70;;;11.50;83.70;;;;;;5055175;28;20032;-74
2022/02/15 16:03:58;;;;;;;7.55;2.33;;;11.50;84.10;;;;;;5054334;28;20550;-75
2022/02/15 16:06:24;;;;;;;5.75;1.30;;;11.50;84.20;;;;;;5047880;28;20012;-73
2022/02/15 16:08:51;;;;;;;7.07;1.73;;;11.50;84.30;;;;;;5043709;28;20107;-73
2022/02/15 16:11:18;;;;;;;6.55;2.05;;;11.50;84.10;;;;;;5050049;28;20068;-73
2022/02/15 16:13:43;;;;;;;6.35;2.08;;;11.40;84.30;;;;;;5050611;28;20087;-73
2022/02/15 16:16:09;;;;;;;5.57;1.52;;;11.30;84.60;;;;;;5045917;28;20037;-74
2022/02/15 16:18:41;;;;;;;6.65;2.00;;;11.30;84.90;;;;;;5054112;28;20039;-74
2022/02/15 16:21:10;;;;;;;10.10;2.13;;;11.30;85.00;;;;;;5054401;28;20048;-73
2022/02/15 16:23:35;;;;;;;10.50;1.95;;;11.30;85.20;;;;;;5039094;28;20112;-74
2022/02/15 16:26:02;;;;;;;6.75;1.40;;;11.30;85.40;;;;;;5039294;28;20104;-73
2022/02/15 16:28:27;;;;;;;6.10;1.95;;;11.30;85.00;;;;;;5041361;28;20025;-74
2022/02/15 16:31:02;;;;;;;8.73;1.90;;;11.20;86.00;;;;;;5042651;28;20026;-74
2022/02/15 16:33:28;;;;;;;5.32;1.92;;;11.20;86.10;;;;;;5046008;28;20032;-74
2022/02/15 16:35:54;;;;;;;5.72;2.33;;;11.20;86.00;;;;;;5047668;28;20021;-74
2022/02/15 16:38:19;;;;;;;4.93;1.60;;;11.20;86.00;;;;;;5054278;28;20023;-74
2022/02/15 16:40:45;;;;;;;3.20;1.58;;;11.20;86.00;;;;;;5051642;28;20081;-74
2022/02/15 16:43:11;;;;;;;7.40;1.63;;;11.20;86.40;;;;;;5052743;28;20033;-74
2022/02/15 16:45:38;;;;;;;8.23;2.40;;;11.20;86.30;;;;;;5054374;28;20479;-74
2022/02/15 16:48:04;;;;;;;10.38;2.10;;;11.10;86.70;;;;;;5053938;28;20040;-74
2022/02/15 16:50:30;;;;;;;4.70;1.85;;;11.00;87.10;;;;;;5053223;28;20386;-74
2022/02/15 16:52:56;;;;;;;6.18;1.45;;;11.10;86.90;;;;;;5051764;28;20473;-77
2022/02/15 16:55:22;;;;;;;7.82;1.90;;;11.10;86.80;;;;;;5051657;28;20025;-74
2022/02/15 16:57:48;;;;;;;4.13;1.60;;;11.10;86.90;;;;;;5042989;28;20037;-74
2022/02/15 17:00:14;;;;;;;6.07;2.35;;;11.10;87.00;;;;;;5047386;28;20087;-74
2022/02/15 17:02:41;;;;;;;6.18;2.10;;;11.00;87.20;;;;;;5053512;28;20074;-74
2022/02/15 17:05:08;;;;;;;5.22;1.63;;;11.10;87.10;;;;;;5066577;28;20035;-74
2022/02/15 17:07:34;;;;;;;7.68;2.05;;;11.10;87.20;;;;;;5074063;28;20018;-74
2022/02/15 17:09:59;;;;;;;4.93;1.77;;;11.00;87.30;;;;;;5074174;28;20024;-73
2022/02/15 17:12:25;;;;;;;12.85;2.50;;;11.00;87.20;;;;;;5053242;28;20522;-74
2022/02/15 17:14:54;;;;;;;4.00;1.75;;;11.00;87.40;;;;;;5035516;28;20021;-74
2022/02/15 17:17:21;;;;;;;6.43;2.08;;;10.90;87.70;;;;;;5035373;28;20497;-74
2022/02/15 17:19:48;;;;;;;3.15;2.33;;;10.90;87.70;;;;;;5038771;28;20037;-74
2022/02/15 17:22:14;;;;;;;6.43;2.00;;;10.90;87.80;;;;;;5034868;28;20063;-74
2022/02/15 17:24:40;;;;;;;7.40;1.63;;;10.90;87.90;;;;;;5033900;28;20060;-74
2022/02/15 17:27:06;;;;;;;4.43;1.63;;;10.90;87.80;;;;;;5052748;28;20083;-74
2022/02/15 17:29:33;;;;;;;4.97;1.33;;;10.90;87.70;;;;;;5053214;28;20029;-74
2022/02/15 17:32:07;;;;;;;2.83;1.70;;;10.90;87.80;;;;;;5053794;28;20060;-74
2022/02/15 17:34:35;;;;;;;5.80;1.98;;;10.80;88.30;;;;;;5043819;28;20419;-74
2022/02/15 17:37:01;;;;;;;8.07;2.05;;;10.90;88.30;;;;;;5033812;28;20116;-74
2022/02/15 17:39:27;;;;;;;7.63;2.22;;;10.90;88.10;;;;;;5035187;28;20025;-74
2022/02/15 17:41:54;;;;;;;5.28;1.70;;;10.90;87.90;;;;;;5035087;28;20033;-74
2022/02/15 17:44:20;;;;;;;2.78;1.80;;;10.90;88.00;;;;;;5036535;28;20507;-74
2022/02/15 17:46:46;;;;;;;5.85;2.10;;;10.90;88.00;;;;;;5039097;28;20489;-74
2022/02/15 17:49:13;;;;;;;6.75;2.50;;;10.90;88.00;;;;;;5037389;28;20052;-74
2022/02/15 17:51:39;;;;;;;4.43;1.98;;;10.80;88.20;;;;;;5049498;28;20106;-74
2022/02/15 17:54:07;;;;;;;7.45;2.05;;;10.80;88.40;;;;;;5058936;28;20029;-74
2022/02/15 17:56:33;;;;;;;9.00;2.42;;;10.80;88.20;;;;;;5044693;28;20519;-74
2022/02/15 17:58:59;;;;;;;7.63;2.25;;;10.80;88.20;;;;;;5038697;28;20057;-74
2022/02/15 18:01:25;;;;;;;3.90;2.30;;;10.80;88.30;;;;;;5038808;28;20487;-74
2022/02/15 18:03:51;;;;;;;5.00;2.13;;;10.90;88.20;;;;;;5047988;28;20032;-74
2022/02/15 18:06:18;;;;;;;6.70;2.60;;;10.80;88.30;;;;;;5078681;28;20390;-74
2022/02/15 18:08:47;;;;;;;3.65;1.95;;;10.90;88.20;;;;;;5058379;28;20057;-74
2022/02/15 18:11:18;;;;;;;4.43;1.98;;;11.00;88.00;;;;;;5043023;28;20028;-74
2022/02/15 18:13:45;;;;;;;4.22;1.88;;;10.90;88.10;;;;;;5038756;28;20026;-74
2022/02/15 18:16:16;;;;;;;4.18;2.03;;;10.90;88.40;;;;;;5038463;28;20079;-74